Time;durP1;ratioP1;P1;durP2;ratioP2;P2;SDS_P1;SDS_P2;PMS_P1;PMS_P2;Temp;Humidity;BMP_temperature;BMP_pressure;BME280_temperature;BME280_humidity;BME280_pressure;Samples;Min_cycle;Max_cycle;Signal;HPM_P1;HPM_P2
2023/12/14 00:02:24;;;;;;;1.80;0.80;;;4.60;99.90;;;;;;5072826;28;20310;-59
2023/12/14 00:04:50;;;;;;;1.77;0.60;;;4.60;99.90;;;;;;5072506;28;20185;-59
2023/12/14 00:07:16;;;;;;;1.10;0.60;;;4.60;99.90;;;;;;5072734;28;20185;-60
2023/12/14 00:09:41;;;;;;;1.97;1.17;;;4.60;99.90;;;;;;5058753;28;20224;-60
2023/12/14 00:12:07;;;;;;;1.40;0.80;;;4.60;99.90;;;;;;5072660;28;20427;-59
2023/12/14 00:14:33;;;;;;;1.93;0.87;;;4.60;99.90;;;;;;5058607;28;20213;-59
2023/12/14 00:16:59;;;;;;;1.30;0.57;;;4.60;99.90;;;;;;5059971;28;20186;-59
2023/12/14 00:19:24;;;;;;;4.70;1.23;;;4.70;99.90;;;;;;5066513;28;20189;-59
2023/12/14 00:21:50;;;;;;;8.30;0.80;;;4.70;99.90;;;;;;5064958;28;20463;-59
2023/12/14 00:24:15;;;;;;;2.27;1.40;;;4.70;99.90;;;;;;5052360;28;20646;-59
2023/12/14 00:26:41;;;;;;;3.33;0.97;;;4.70;99.90;;;;;;5059851;28;20181;-59
2023/12/14 00:29:06;;;;;;;2.03;1.10;;;4.70;99.90;;;;;;5056161;28;20182;-59
2023/12/14 00:31:32;;;;;;;2.57;0.80;;;4.70;99.90;;;;;;5052288;28;20256;-59
2023/12/14 00:33:57;;;;;;;2.03;1.00;;;4.70;99.90;;;;;;5052165;28;20498;-59
2023/12/14 00:36:23;;;;;;;1.50;0.60;;;4.60;99.90;;;;;;5044434;28;20194;-59
2023/12/14 00:38:48;;;;;;;1.93;0.70;;;4.60;99.90;;;;;;5045844;28;20220;-60
2023/12/14 00:41:14;;;;;;;1.40;0.73;;;4.70;99.90;;;;;;5046772;28;20229;-59
2023/12/14 00:43:40;;;;;;;2.50;1.07;;;4.70;99.90;;;;;;5063974;28;20248;-59
2023/12/14 00:46:05;;;;;;;1.10;0.70;;;4.70;99.90;;;;;;5051790;28;20177;-59
2023/12/14 00:48:31;;;;;;;1.50;0.67;;;4.70;99.90;;;;;;5065166;28;20264;-59
2023/12/14 00:50:56;;;;;;;1.43;0.80;;;4.80;99.90;;;;;;5051544;28;20182;-59
2023/12/14 00:53:22;;;;;;;2.30;0.80;;;4.70;99.90;;;;;;5052000;28;20182;-59
2023/12/14 00:55:47;;;;;;;1.80;1.00;;;4.70;99.90;;;;;;5044745;28;20185;-59
2023/12/14 00:58:13;;;;;;;1.30;0.70;;;4.70;99.90;;;;;;5052127;28;20188;-60
2023/12/14 01:00:39;;;;;;;1.47;1.00;;;4.70;99.90;;;;;;5049951;28;20420;-59
2023/12/14 01:03:04;;;;;;;5.67;1.43;;;4.70;99.90;;;;;;5064705;28;20201;-59
2023/12/14 01:05:30;;;;;;;1.50;0.70;;;4.70;99.90;;;;;;5045665;28;20575;-59
2023/12/14 01:07:55;;;;;;;1.40;0.70;;;4.70;99.90;;;;;;5057609;28;20196;-59
2023/12/14 01:10:21;;;;;;;1.33;0.60;;;4.70;99.90;;;;;;5071125;28;20185;-59
2023/12/14 01:12:46;;;;;;;2.13;0.67;;;4.80;99.90;;;;;;5058670;28;20319;-59
2023/12/14 01:15:11;;;;;;;1.37;0.70;;;4.70;99.90;;;;;;5070679;28;20185;-59
2023/12/14 01:17:37;;;;;;;1.60;0.70;;;4.80;99.90;;;;;;5071406;28;20551;-59
2023/12/14 01:20:07;;;;;;;2.40;1.00;;;4.70;99.90;;;;;;5064296;28;20660;-59
2023/12/14 01:22:33;;;;;;;1.60;0.70;;;4.70;99.90;;;;;;5051585;28;20210;-60
2023/12/14 01:24:59;;;;;;;3.23;1.30;;;4.70;99.90;;;;;;5045080;28;20756;-59
2023/12/14 01:27:24;;;;;;;1.47;1.07;;;4.70;99.90;;;;;;5044484;28;20427;-60
2023/12/14 01:29:50;;;;;;;2.33;1.30;;;4.70;99.90;;;;;;5060129;28;20436;-60
2023/12/14 01:32:15;;;;;;;3.83;2.07;;;4.70;99.90;;;;;;5064213;28;20640;-59
2023/12/14 01:34:41;;;;;;;2.57;1.60;;;4.70;99.90;;;;;;5051760;28;20196;-60
2023/12/14 01:37:07;;;;;;;5.23;2.37;;;4.80;99.90;;;;;;5051599;28;20259;-60
2023/12/14 01:39:33;;;;;;;2.53;1.80;;;4.70;99.90;;;;;;5047484;28;20197;-59
2023/12/14 01:41:58;;;;;;;4.07;2.30;;;4.70;99.90;;;;;;5058685;28;20224;-60
2023/12/14 01:44:24;;;;;;;2.90;1.83;;;4.70;99.90;;;;;;5070860;28;20633;-59
2023/12/14 01:46:49;;;;;;;4.33;2.10;;;4.70;99.90;;;;;;5071379;28;20264;-59
2023/12/14 01:49:15;;;;;;;4.90;2.80;;;4.70;99.90;;;;;;5071273;28;20260;-60
2023/12/14 01:51:40;;;;;;;3.13;2.00;;;4.70;99.90;;;;;;5072762;28;20184;-59
2023/12/14 01:54:06;;;;;;;4.80;2.67;;;4.80;99.90;;;;;;5068356;28;20185;-59
2023/12/14 01:56:32;;;;;;;3.33;2.27;;;4.80;99.90;;;;;;5062729;28;20224;-59
2023/12/14 01:58:57;;;;;;;3.57;2.50;;;4.80;99.90;;;;;;5070283;28;20233;-60
2023/12/14 02:01:51;;;;;;;3.80;2.40;;;4.90;99.90;;;;;;5071077;28;20213;-59
2023/12/14 02:04:17;;;;;;;3.30;2.40;;;4.90;99.90;;;;;;5064103;28;20180;-60
2023/12/14 02:06:43;;;;;;;3.90;2.53;;;4.80;99.90;;;;;;5075195;28;20411;-59
2023/12/14 02:09:08;;;;;;;3.03;1.93;;;4.80;99.90;;;;;;5075048;28;20200;-60
2023/12/14 02:11:34;;;;;;;3.63;2.13;;;4.80;99.90;;;;;;5074868;28;20189;-59
2023/12/14 02:14:04;;;;;;;4.60;2.57;;;4.90;99.90;;;;;;5075041;28;20537;-59
2023/12/14 02:16:31;;;;;;;5.37;2.77;;;4.90;99.90;;;;;;5075066;28;20272;-59
2023/12/14 02:18:57;;;;;;;6.63;2.57;;;5.00;99.90;;;;;;5074748;28;20415;-59
2023/12/14 02:21:22;;;;;;;4.43;2.23;;;5.00;99.90;;;;;;5077899;28;20494;-60
2023/12/14 02:23:48;;;;;;;4.00;2.07;;;4.90;99.90;;;;;;5065330;28;20306;-59
2023/12/14 02:26:14;;;;;;;4.03;3.10;;;4.90;99.90;;;;;;5074875;28;20204;-60
2023/12/14 02:28:39;;;;;;;4.93;2.67;;;4.90;99.90;;;;;;5074870;28;20188;-60
2023/12/14 02:31:05;;;;;;;6.70;3.53;;;4.90;99.90;;;;;;5074382;28;20415;-60
2023/12/14 02:33:31;;;;;;;5.27;2.73;;;4.80;99.90;;;;;;5074759;28;20257;-59
2023/12/14 02:35:56;;;;;;;8.00;2.60;;;4.80;99.90;;;;;;5070097;28;20182;-60
2023/12/14 02:38:22;;;;;;;8.57;4.07;;;4.90;99.90;;;;;;5065622;28;20174;-60
2023/12/14 02:40:47;;;;;;;3.60;2.40;;;5.00;99.90;;;;;;5073885;28;20177;-59
2023/12/14 02:43:13;;;;;;;4.90;2.43;;;5.00;99.90;;;;;;5074633;28;20285;-59
2023/12/14 02:45:38;;;;;;;5.80;3.30;;;4.90;99.90;;;;;;5073978;28;20184;-60
2023/12/14 02:48:04;;;;;;;5.27;2.87;;;4.90;99.90;;;;;;5074514;28;20653;-59
2023/12/14 02:50:30;;;;;;;4.33;2.13;;;4.90;99.90;;;;;;5075678;28;20173;-59
2023/12/14 02:52:55;;;;;;;4.60;2.50;;;4.90;99.90;;;;;;5083889;28;20196;-60
2023/12/14 02:55:21;;;;;;;5.90;3.50;;;4.80;99.90;;;;;;5066221;28;20215;-59
2023/12/14 02:57:47;;;;;;;10.37;3.30;;;4.90;99.90;;;;;;5064491;28;20178;-60
2023/12/14 03:00:13;;;;;;;5.63;3.10;;;4.90;99.90;;;;;;5073674;28;20180;-59
2023/12/14 03:02:38;;;;;;;10.70;3.77;;;4.90;99.90;;;;;;5073982;28;20213;-60
2023/12/14 03:05:04;;;;;;;5.00;3.13;;;4.90;99.90;;;;;;5073670;28;20185;-59
2023/12/14 03:07:30;;;;;;;7.53;4.53;;;4.90;99.90;;;;;;5074112;28;20177;-59
2023/12/14 03:09:55;;;;;;;7.23;4.50;;;4.90;99.90;;;;;;5073803;28;20192;-59
2023/12/14 03:12:21;;;;;;;5.93;3.90;;;4.90;99.90;;;;;;5073868;28;20595;-59
2023/12/14 03:14:46;;;;;;;7.47;4.63;;;4.90;99.90;;;;;;5072720;28;20196;-59
2023/12/14 03:17:12;;;;;;;9.57;4.30;;;4.80;99.90;;;;;;5074064;28;20208;-60
2023/12/14 03:19:41;;;;;;;5.80;3.67;;;4.80;99.90;;;;;;5073563;28;20189;-60
2023/12/14 03:22:07;;;;;;;6.00;4.03;;;4.80;99.90;;;;;;5076082;28;20795;-59
2023/12/14 03:24:33;;;;;;;8.63;4.87;;;4.90;99.90;;;;;;5073660;28;20430;-60
2023/12/14 03:26:58;;;;;;;7.47;3.80;;;4.90;99.90;;;;;;5073575;28;20419;-59
2023/12/14 03:29:24;;;;;;;8.93;4.10;;;4.90;99.90;;;;;;5072878;28;20260;-60
2023/12/14 03:31:49;;;;;;;8.37;4.37;;;5.00;99.90;;;;;;5073551;28;20582;-60
2023/12/14 03:34:15;;;;;;;6.87;4.03;;;5.00;99.90;;;;;;5073573;28;20189;-60
2023/12/14 03:36:40;;;;;;;16.67;4.50;;;5.00;99.90;;;;;;5063124;28;20186;-59
2023/12/14 03:39:06;;;;;;;5.90;4.17;;;5.00;99.90;;;;;;5078588;28;20177;-59
2023/12/14 03:41:32;;;;;;;8.37;3.73;;;5.00;99.90;;;;;;5073054;28;20689;-59
2023/12/14 03:43:57;;;;;;;6.50;3.00;;;5.00;99.90;;;;;;5073202;28;20227;-60
2023/12/14 03:46:23;;;;;;;8.27;4.53;;;5.00;99.90;;;;;;5073344;28;20427;-60
2023/12/14 03:48:49;;;;;;;5.63;3.80;;;5.00;99.90;;;;;;5073226;28;20184;-60
2023/12/14 03:51:18;;;;;;;7.73;4.57;;;4.90;99.90;;;;;;5079463;28;20694;-60
2023/12/14 03:53:44;;;;;;;6.20;3.93;;;5.00;99.90;;;;;;5075081;28;20314;-59
2023/12/14 03:56:09;;;;;;;8.87;4.17;;;5.00;99.90;;;;;;5069039;28;20424;-59
2023/12/14 03:58:35;;;;;;;6.60;4.23;;;5.00;99.90;;;;;;5072808;28;20200;-60
2023/12/14 04:01:00;;;;;;;7.70;4.60;;;5.10;99.90;;;;;;5063020;28;20193;-60
2023/12/14 04:03:26;;;;;;;7.63;4.43;;;5.10;99.90;;;;;;5073168;28;20180;-60
2023/12/14 04:05:51;;;;;;;10.03;4.17;;;5.00;99.90;;;;;;5072963;28;20177;-59
2023/12/14 04:08:17;;;;;;;6.43;3.73;;;5.00;99.90;;;;;;5072776;28;20181;-59
2023/12/14 04:10:42;;;;;;;10.03;4.77;;;5.00;99.90;;;;;;5072522;28;20193;-59
2023/12/14 04:13:08;;;;;;;8.23;4.40;;;5.10;99.90;;;;;;5072842;28;20680;-60
2023/12/14 04:15:33;;;;;;;8.20;3.80;;;5.10;99.90;;;;;;5062787;28;20202;-59
2023/12/14 04:17:59;;;;;;;17.23;4.60;;;5.00;99.90;;;;;;5069190;28;20548;-59
2023/12/14 04:20:24;;;;;;;7.30;4.57;;;5.00;99.90;;;;;;5072012;28;20216;-60
2023/12/14 04:22:50;;;;;;;8.10;3.80;;;5.00;99.90;;;;;;5058437;28;20214;-60
2023/12/14 04:25:15;;;;;;;8.20;4.47;;;5.00;99.90;;;;;;5071832;28;20816;-59
2023/12/14 04:27:40;;;;;;;5.97;4.17;;;4.90;99.90;;;;;;5072262;28;20188;-60
2023/12/14 04:30:10;;;;;;;12.40;4.97;;;5.00;99.90;;;;;;5071942;28;20810;-60
2023/12/14 04:32:36;;;;;;;10.53;4.87;;;4.90;99.90;;;;;;5072441;28;20181;-59
2023/12/14 04:35:01;;;;;;;7.33;4.13;;;4.90;99.90;;;;;;5072241;28;20514;-59
2023/12/14 04:37:27;;;;;;;7.57;3.93;;;4.90;99.90;;;;;;5072148;28;20526;-59
2023/12/14 04:39:52;;;;;;;7.37;3.47;;;4.90;99.90;;;;;;5062240;28;20217;-59
2023/12/14 04:42:18;;;;;;;8.13;4.60;;;4.90;99.90;;;;;;5055482;28;20252;-59
2023/12/14 04:44:43;;;;;;;7.57;4.50;;;5.10;99.90;;;;;;5071879;28;20185;-60
2023/12/14 04:47:09;;;;;;;18.03;4.63;;;5.00;99.90;;;;;;5072001;28;20500;-59
2023/12/14 04:49:34;;;;;;;8.57;3.70;;;5.10;99.90;;;;;;5071834;28;20914;-59
2023/12/14 04:52:00;;;;;;;10.83;5.40;;;5.10;99.90;;;;;;5070671;28;20184;-59
2023/12/14 04:54:25;;;;;;;8.70;4.87;;;5.00;99.90;;;;;;5068496;28;20613;-59
2023/12/14 04:56:51;;;;;;;12.73;5.30;;;5.00;99.90;;;;;;5066161;28;20319;-59
2023/12/14 04:59:17;;;;;;;7.90;3.67;;;5.10;99.90;;;;;;5071603;28;20620;-59
2023/12/14 05:01:42;;;;;;;6.87;3.60;;;5.10;99.90;;;;;;5071731;28;20463;-59
2023/12/14 05:04:08;;;;;;;7.40;3.33;;;5.10;99.90;;;;;;5071493;28;20274;-59
2023/12/14 05:06:35;;;;;;;5.03;3.20;;;5.10;99.90;;;;;;5071393;28;20225;-59
2023/12/14 05:09:03;;;;;;;9.33;4.67;;;5.10;99.90;;;;;;5071608;28;20185;-59
2023/12/14 05:11:29;;;;;;;14.70;8.40;;;5.10;99.90;;;;;;5071288;28;20420;-59
2023/12/14 05:13:54;;;;;;;11.10;4.07;;;5.00;99.90;;;;;;5071770;28;20423;-59
2023/12/14 05:16:20;;;;;;;7.40;4.03;;;5.00;99.90;;;;;;5071088;28;20235;-59
2023/12/14 05:18:45;;;;;;;15.17;8.27;;;5.10;99.90;;;;;;5061792;28;20186;-59
2023/12/14 05:21:17;;;;;;;16.47;8.20;;;5.00;99.90;;;;;;5067678;28;20276;-59
2023/12/14 05:23:43;;;;;;;17.43;7.00;;;5.10;99.90;;;;;;5071506;28;20638;-59
2023/12/14 05:26:08;;;;;;;8.53;5.13;;;5.10;99.90;;;;;;5070830;28;20446;-60
2023/12/14 05:28:35;;;;;;;9.20;4.67;;;5.00;99.90;;;;;;5071617;28;20189;-59
2023/12/14 05:31:00;;;;;;;10.57;6.07;;;5.00;99.90;;;;;;5068221;28;20173;-60
2023/12/14 05:33:26;;;;;;;10.50;6.87;;;4.90;99.90;;;;;;5071387;28;20470;-59
2023/12/14 05:35:51;;;;;;;14.23;7.53;;;4.90;99.90;;;;;;5070724;28;20277;-59
2023/12/14 05:38:17;;;;;;;10.63;6.03;;;4.90;99.90;;;;;;5068212;28;20198;-59
2023/12/14 05:40:43;;;;;;;16.90;7.00;;;4.90;99.90;;;;;;5070667;28;20284;-59
2023/12/14 05:43:10;;;;;;;12.97;7.07;;;4.90;99.90;;;;;;5071322;28;20661;-59
2023/12/14 05:45:35;;;;;;;17.00;6.93;;;4.90;99.90;;;;;;5070659;28;20461;-59
2023/12/14 05:48:01;;;;;;;13.40;7.30;;;4.90;99.90;;;;;;5071139;28;20420;-60
2023/12/14 05:50:27;;;;;;;9.37;6.00;;;4.90;99.90;;;;;;5070952;28;20183;-59
2023/12/14 05:52:53;;;;;;;12.80;6.50;;;4.90;99.90;;;;;;5070986;28;20419;-59
2023/12/14 05:55:21;;;;;;;8.87;5.20;;;4.90;99.90;;;;;;5067901;28;20649;-59
2023/12/14 05:57:47;;;;;;;9.23;5.20;;;4.90;99.90;;;;;;5064931;28;20731;-59
2023/12/14 06:00:13;;;;;;;10.33;6.10;;;4.90;99.90;;;;;;5069676;28;20416;-59
2023/12/14 06:02:39;;;;;;;12.07;6.67;;;5.00;99.90;;;;;;5070918;28;20466;-59
2023/12/14 06:05:07;;;;;;;13.67;6.17;;;5.00;99.90;;;;;;5070822;28;20481;-59
2023/12/14 06:07:33;;;;;;;8.53;4.40;;;5.00;99.90;;;;;;5070870;28;20525;-59
2023/12/14 06:09:58;;;;;;;11.23;5.60;;;5.00;99.90;;;;;;5070677;28;21000;-59
2023/12/14 06:12:24;;;;;;;6.30;4.27;;;5.00;99.90;;;;;;5070860;28;20688;-59
2023/12/14 06:14:50;;;;;;;6.80;3.40;;;5.00;99.90;;;;;;5070120;28;20189;-60
2023/12/14 06:17:15;;;;;;;4.90;3.43;;;5.00;99.90;;;;;;5061878;28;20186;-60
2023/12/14 06:19:41;;;;;;;10.90;3.30;;;5.00;99.90;;;;;;5060970;28;20181;-60
2023/12/14 06:22:07;;;;;;;5.90;3.00;;;5.00;99.90;;;;;;5066103;28;20201;-60
2023/12/14 06:24:33;;;;;;;4.97;3.20;;;5.00;99.90;;;;;;5070579;28;20696;-60
2023/12/14 06:26:58;;;;;;;5.47;3.03;;;5.00;99.90;;;;;;5070482;28;20178;-59
2023/12/14 06:29:24;;;;;;;3.57;2.50;;;5.10;99.90;;;;;;5070179;28;20184;-59
2023/12/14 06:31:49;;;;;;;3.00;1.70;;;5.10;99.90;;;;;;5070638;28;20527;-59
2023/12/14 06:34:15;;;;;;;2.90;2.00;;;5.10;99.90;;;;;;5070522;28;20205;-60
2023/12/14 06:36:44;;;;;;;3.77;2.20;;;5.10;99.90;;;;;;5060279;28;20185;-60
2023/12/14 06:39:10;;;;;;;5.53;2.77;;;5.10;99.90;;;;;;5067790;28;20699;-60
2023/12/14 06:41:36;;;;;;;13.00;4.20;;;5.10;99.90;;;;;;5070026;28;20485;-59
2023/12/14 06:44:02;;;;;;;4.97;2.90;;;5.10;99.90;;;;;;5069769;28;20181;-59
2023/12/14 06:46:28;;;;;;;5.43;2.87;;;5.10;99.90;;;;;;5070628;28;20870;-59
2023/12/14 06:48:53;;;;;;;5.57;1.60;;;5.10;99.90;;;;;;5070764;28;20415;-60
2023/12/14 06:51:19;;;;;;;3.70;1.53;;;5.10;99.90;;;;;;5073925;28;20173;-60
2023/12/14 06:53:46;;;;;;;3.90;1.67;;;5.10;99.90;;;;;;5073086;28;20791;-59
2023/12/14 06:56:11;;;;;;;2.00;1.37;;;5.10;99.90;;;;;;5059576;28;20224;-60
2023/12/14 06:58:39;;;;;;;2.17;1.10;;;5.10;99.90;;;;;;5070881;28;20803;-60
2023/12/14 07:01:05;;;;;;;3.33;1.77;;;5.10;99.90;;;;;;5073702;28;20188;-61
2023/12/14 07:03:31;;;;;;;3.50;1.63;;;5.10;99.90;;;;;;5060696;28;20466;-61
2023/12/14 07:05:57;;;;;;;7.30;2.37;;;5.10;99.90;;;;;;5073383;28;20463;-61
2023/12/14 07:08:23;;;;;;;6.60;3.10;;;5.10;99.90;;;;;;5067628;28;20211;-61
2023/12/14 07:10:48;;;;;;;2.60;2.00;;;5.10;99.90;;;;;;5073051;28;20447;-61
2023/12/14 07:13:14;;;;;;;5.60;1.67;;;5.10;99.90;;;;;;5073739;28;20573;-61
2023/12/14 07:15:39;;;;;;;1.50;0.90;;;5.10;99.90;;;;;;5068348;28;20659;-60
2023/12/14 07:18:05;;;;;;;3.37;1.40;;;5.10;99.90;;;;;;5071846;28;20254;-61
2023/12/14 07:20:30;;;;;;;2.73;1.80;;;5.10;99.90;;;;;;5063492;28;20190;-61
2023/12/14 07:22:56;;;;;;;2.93;1.80;;;5.10;99.90;;;;;;5070461;28;20215;-61
2023/12/14 07:25:21;;;;;;;2.90;2.13;;;5.10;99.90;;;;;;5073649;28;20189;-61
2023/12/14 07:27:47;;;;;;;4.57;1.70;;;5.10;99.90;;;;;;5073210;28;20185;-61
2023/12/14 07:30:13;;;;;;;3.30;2.00;;;5.10;99.90;;;;;;5073033;28;20264;-61
2023/12/14 07:32:39;;;;;;;3.70;1.40;;;5.10;99.90;;;;;;5069972;28;20197;-61
2023/12/14 07:35:05;;;;;;;4.37;2.07;;;5.10;99.90;;;;;;5063439;28;20568;-61
2023/12/14 07:37:30;;;;;;;3.23;1.97;;;5.10;99.90;;;;;;5073462;28;20244;-61
2023/12/14 07:39:57;;;;;;;9.53;3.40;;;5.10;99.90;;;;;;5073193;28;20459;-61
2023/12/14 07:42:23;;;;;;;6.90;3.93;;;5.20;99.90;;;;;;5072559;28;20220;-61
2023/12/14 07:44:48;;;;;;;4.97;3.33;;;5.20;99.90;;;;;;5072766;28;20438;-61
2023/12/14 07:47:14;;;;;;;8.80;3.73;;;5.20;99.90;;;;;;5073086;28;20187;-61
2023/12/14 07:49:39;;;;;;;6.90;3.43;;;5.20;99.90;;;;;;5073004;28;20511;-61
2023/12/14 07:52:05;;;;;;;8.87;3.53;;;5.30;99.90;;;;;;5072784;28;20208;-61
2023/12/14 07:54:31;;;;;;;5.70;2.80;;;5.20;99.90;;;;;;5068588;28;20650;-61
2023/12/14 07:56:57;;;;;;;9.80;3.50;;;5.20;99.90;;;;;;5071412;28;20186;-61
2023/12/14 07:59:22;;;;;;;4.20;2.20;;;5.20;99.90;;;;;;5071958;28;20222;-61
2023/12/14 08:01:48;;;;;;;2.37;1.53;;;5.20;99.90;;;;;;5072717;28;20208;-61
2023/12/14 08:04:14;;;;;;;3.47;2.03;;;5.20;99.90;;;;;;5072673;28;20192;-61
2023/12/14 08:06:40;;;;;;;3.47;1.70;;;5.20;99.90;;;;;;5072687;28;20657;-61
2023/12/14 08:09:06;;;;;;;4.00;2.70;;;5.20;99.90;;;;;;5072707;28;20407;-61
2023/12/14 08:11:34;;;;;;;3.63;2.43;;;5.30;99.90;;;;;;5072085;28;20189;-61
2023/12/14 08:14:00;;;;;;;4.73;2.00;;;5.30;99.90;;;;;;5072010;28;20189;-61
2023/12/14 08:16:25;;;;;;;5.73;2.73;;;5.30;99.90;;;;;;5072230;28;20890;-61
2023/12/14 08:18:51;;;;;;;8.20;2.63;;;5.30;99.90;;;;;;5054058;28;21070;-61
2023/12/14 08:21:18;;;;;;;4.30;1.90;;;5.30;99.90;;;;;;5071431;28;20196;-61
2023/12/14 08:23:44;;;;;;;3.10;2.13;;;5.40;99.90;;;;;;5071786;28;20225;-61
2023/12/14 08:26:13;;;;;;;4.40;2.20;;;5.40;99.90;;;;;;5071503;28;20451;-61
2023/12/14 08:28:41;;;;;;;4.60;2.40;;;5.40;99.90;;;;;;5072227;28;20212;-61
2023/12/14 08:31:09;;;;;;;4.97;2.40;;;5.40;99.90;;;;;;5071950;28;20438;-61
2023/12/14 08:33:34;;;;;;;10.23;4.40;;;5.40;99.90;;;;;;5072280;28;20422;-61
2023/12/14 08:36:00;;;;;;;5.60;2.70;;;5.40;99.90;;;;;;5067095;28;20428;-61
2023/12/14 08:38:25;;;;;;;9.73;2.97;;;5.40;99.90;;;;;;5063322;28;20169;-61
2023/12/14 08:40:51;;;;;;;5.63;2.43;;;5.40;99.90;;;;;;5058439;28;20197;-61
2023/12/14 08:43:17;;;;;;;5.83;2.93;;;5.50;99.90;;;;;;5071761;28;20201;-61
2023/12/14 08:45:42;;;;;;;3.33;1.80;;;5.40;99.90;;;;;;5071775;28;20219;-61
2023/12/14 08:48:08;;;;;;;7.50;3.10;;;5.60;99.90;;;;;;5068208;28;20199;-61
2023/12/14 08:50:33;;;;;;;3.33;1.73;;;5.60;99.90;;;;;;5068922;28;20192;-61
2023/12/14 08:52:59;;;;;;;3.00;2.27;;;5.60;99.90;;;;;;5064799;28;20185;-61
2023/12/14 08:55:25;;;;;;;7.17;2.90;;;5.70;99.90;;;;;;5060491;28;20191;-61
2023/12/14 08:57:52;;;;;;;4.80;3.00;;;5.70;99.90;;;;;;5068869;28;20661;-61
2023/12/14 09:00:18;;;;;;;6.80;2.83;;;5.70;99.90;;;;;;5060461;28;20434;-61
2023/12/14 09:02:45;;;;;;;3.20;2.03;;;5.80;99.90;;;;;;5070577;28;20205;-61
2023/12/14 09:05:12;;;;;;;3.43;2.03;;;5.80;99.90;;;;;;5070488;28;20418;-61
2023/12/14 09:07:37;;;;;;;3.73;2.10;;;5.80;99.90;;;;;;5070714;28;20470;-61
2023/12/14 09:10:03;;;;;;;4.97;2.40;;;5.80;99.90;;;;;;5070323;28;20447;-61
2023/12/14 09:12:28;;;;;;;3.97;2.13;;;5.80;99.90;;;;;;5070032;28;20748;-61
2023/12/14 09:14:54;;;;;;;5.43;3.07;;;5.90;99.90;;;;;;5069695;28;20272;-61
2023/12/14 09:17:20;;;;;;;7.87;3.43;;;5.90;99.90;;;;;;5058734;28;20236;-61
2023/12/14 09:19:45;;;;;;;6.47;1.83;;;5.90;99.90;;;;;;5068123;28;20207;-61
2023/12/14 09:22:11;;;;;;;4.60;2.30;;;5.90;99.90;;;;;;5070015;28;20205;-61
2023/12/14 09:24:36;;;;;;;3.33;1.63;;;6.00;99.90;;;;;;5064943;28;20178;-61
2023/12/14 09:27:02;;;;;;;4.90;3.07;;;6.00;99.90;;;;;;5070298;28;20177;-60
2023/12/14 09:29:27;;;;;;;5.23;2.20;;;6.10;99.90;;;;;;5069856;28;20265;-60
2023/12/14 09:31:53;;;;;;;5.40;2.77;;;6.10;99.90;;;;;;5052413;28;20559;-60
2023/12/14 09:34:18;;;;;;;6.50;1.80;;;6.10;99.90;;;;;;5070250;28;20189;-60
2023/12/14 09:36:44;;;;;;;4.50;2.10;;;6.10;99.90;;;;;;5071444;28;20216;-60
2023/12/14 09:39:10;;;;;;;3.90;2.13;;;6.20;99.90;;;;;;5080047;28;20251;-60
2023/12/14 09:41:37;;;;;;;4.20;2.23;;;6.20;99.90;;;;;;5071054;28;20229;-62
2023/12/14 09:44:04;;;;;;;4.40;2.03;;;6.20;99.90;;;;;;5070502;28;20771;-60
2023/12/14 09:46:31;;;;;;;4.70;2.20;;;6.20;99.90;;;;;;5070830;28;20511;-65
2023/12/14 09:48:59;;;;;;;3.50;2.13;;;6.20;99.90;;;;;;5066533;28;20436;-61
2023/12/14 09:51:24;;;;;;;2.93;1.40;;;6.30;99.90;;;;;;5049432;28;20432;-61
2023/12/14 09:53:52;;;;;;;2.57;1.73;;;6.20;99.90;;;;;;5062571;28;20423;-60
2023/12/14 09:56:18;;;;;;;3.00;2.20;;;6.30;99.90;;;;;;5063762;28;20184;-60
2023/12/14 09:58:43;;;;;;;4.00;1.90;;;6.40;99.90;;;;;;5068337;28;20419;-60
2023/12/14 10:01:25;;;;;;;3.77;2.27;;;6.30;99.90;;;;;;5069993;28;20798;-60
2023/12/14 10:04:16;;;;;;;6.40;2.20;;;6.30;99.90;;;;;;5057626;28;20652;-60
2023/12/14 10:06:44;;;;;;;31.17;2.10;;;6.20;99.90;;;;;;5069769;28;20450;-60
2023/12/14 10:09:13;;;;;;;2.13;1.77;;;6.30;99.90;;;;;;5079195;28;20824;-59
2023/12/14 10:11:40;;;;;;;4.30;2.53;;;6.40;99.90;;;;;;5069669;28;20424;-59
2023/12/14 10:14:25;;;;;;;4.33;1.90;;;6.50;99.90;;;;;;5069148;28;20427;-59
2023/12/14 10:16:51;;;;;;;3.90;1.90;;;6.60;99.90;;;;;;5066061;28;20502;-60
2023/12/14 10:19:21;;;;;;;4.23;2.20;;;6.60;99.90;;;;;;5043791;28;20856;-59
2023/12/14 10:21:48;;;;;;;2.93;2.07;;;6.60;99.90;;;;;;5066006;28;21000;-59
2023/12/14 10:24:14;;;;;;;4.90;2.30;;;6.70;99.90;;;;;;5062461;28;20901;-59
2023/12/14 10:26:40;;;;;;;3.73;1.77;;;6.60;99.90;;;;;;5067029;28;20427;-60
2023/12/14 10:29:06;;;;;;;2.63;1.73;;;6.60;99.90;;;;;;5071000;28;20887;-61
2023/12/14 10:31:37;;;;;;;4.90;2.13;;;6.60;99.90;;;;;;5071985;28;20408;-60
2023/12/14 10:34:06;;;;;;;1.90;1.20;;;6.60;99.90;;;;;;5072068;28;20428;-61
2023/12/14 10:36:32;;;;;;;5.73;2.67;;;6.60;99.90;;;;;;5070097;28;20415;-61
2023/12/14 10:39:00;;;;;;;3.77;1.90;;;6.60;99.90;;;;;;5072443;28;20574;-60
2023/12/14 10:41:28;;;;;;;3.17;1.60;;;6.60;99.90;;;;;;5071416;28;20486;-61
2023/12/14 10:43:56;;;;;;;2.60;1.40;;;6.70;99.90;;;;;;5069440;28;20815;-61
2023/12/14 10:46:23;;;;;;;4.40;1.90;;;6.90;99.90;;;;;;5067208;28;20455;-59
2023/12/14 10:48:50;;;;;;;3.47;2.23;;;7.00;99.90;;;;;;5066971;28;20431;-59
2023/12/14 10:51:18;;;;;;;4.43;2.27;;;7.10;99.90;;;;;;5069923;28;20484;-59
2023/12/14 10:53:47;;;;;;;2.27;1.67;;;7.10;99.90;;;;;;5073418;28;20920;-59
2023/12/14 10:56:13;;;;;;;3.17;1.90;;;7.10;99.90;;;;;;5066843;28;20518;-59
2023/12/14 10:58:50;;;;;;;2.50;1.50;;;7.10;99.90;;;;;;5072878;28;20425;-60
2023/12/14 11:01:18;;;;;;;3.67;1.57;;;7.00;99.90;;;;;;5070133;28;20422;-60
2023/12/14 11:03:44;;;;;;;3.57;1.40;;;7.10;99.90;;;;;;5073187;28;20427;-61
2023/12/14 11:06:28;;;;;;;3.40;1.83;;;7.10;99.90;;;;;;5073249;28;20446;-61
2023/12/14 11:08:56;;;;;;;4.80;1.50;;;7.10;99.90;;;;;;5074748;28;21071;-61
2023/12/14 11:11:22;;;;;;;3.00;1.53;;;7.10;99.90;;;;;;5072926;28;20465;-60
2023/12/14 11:13:52;;;;;;;1.33;0.90;;;7.10;99.90;;;;;;5072674;28;20403;-61
2023/12/14 11:16:21;;;;;;;5.07;1.60;;;7.10;99.90;;;;;;5067021;28;20249;-61
2023/12/14 11:18:47;;;;;;;4.87;2.30;;;7.20;99.90;;;;;;5071389;28;20416;-61
2023/12/14 11:21:24;;;;;;;2.73;1.73;;;7.00;99.90;;;;;;5070740;28;20434;-61
2023/12/14 11:23:50;;;;;;;3.17;2.03;;;7.10;99.90;;;;;;5072154;28;20419;-59
2023/12/14 11:26:24;;;;;;;3.50;2.20;;;7.50;99.90;;;;;;5075751;28;20931;-59
2023/12/14 11:28:50;;;;;;;3.43;1.43;;;7.60;99.90;;;;;;5071928;28;20471;-59
2023/12/14 11:31:16;;;;;;;2.00;1.30;;;7.80;99.90;;;;;;5072113;28;20907;-59
2023/12/14 11:33:44;;;;;;;3.30;1.30;;;8.00;99.90;;;;;;5066262;28;20224;-58
2023/12/14 11:36:11;;;;;;;4.63;1.10;;;8.00;99.90;;;;;;5069970;28;20422;-59
2023/12/14 11:38:37;;;;;;;6.40;0.80;;;8.00;99.90;;;;;;5068219;28;20914;-59
2023/12/14 11:41:03;;;;;;;3.43;1.23;;;8.00;99.90;;;;;;5068527;28;20879;-59
2023/12/14 11:43:29;;;;;;;3.27;1.03;;;8.00;99.90;;;;;;5070767;28;20220;-59
2023/12/14 11:45:55;;;;;;;1.80;1.20;;;7.90;99.90;;;;;;5070637;28;20430;-59
2023/12/14 11:48:21;;;;;;;4.67;1.60;;;7.80;99.90;;;;;;5071096;28;20268;-59
2023/12/14 11:50:47;;;;;;;5.10;1.53;;;7.70;99.90;;;;;;5071059;28;20498;-59
2023/12/14 11:53:13;;;;;;;3.17;1.37;;;7.80;99.90;;;;;;5071215;28;20201;-60
2023/12/14 11:55:40;;;;;;;4.57;1.70;;;7.70;99.90;;;;;;5061874;28;20223;-61
2023/12/14 11:58:06;;;;;;;2.30;1.20;;;7.50;99.90;;;;;;5071200;28;20506;-60
2023/12/14 12:00:33;;;;;;;2.03;1.30;;;7.20;99.90;;;;;;5063574;28;20610;-60
2023/12/14 12:03:19;;;;;;;2.77;1.40;;;7.00;99.90;;;;;;5052001;28;20890;-60
2023/12/14 12:05:50;;;;;;;3.20;1.47;;;6.90;99.90;;;;;;5068175;28;20418;-60
2023/12/14 12:08:18;;;;;;;2.70;1.20;;;6.70;99.90;;;;;;5067861;28;20423;-60
2023/12/14 12:10:45;;;;;;;2.43;1.53;;;6.70;99.90;;;;;;5069553;28;20411;-61
2023/12/14 12:13:12;;;;;;;3.63;1.63;;;6.70;99.90;;;;;;5070070;28;20433;-60
2023/12/14 12:15:38;;;;;;;3.80;1.70;;;6.50;99.90;;;;;;5068160;28;20419;-61
2023/12/14 12:18:06;;;;;;;2.27;1.33;;;6.60;99.90;;;;;;5069732;28;20415;-61
2023/12/14 12:20:32;;;;;;;6.67;1.80;;;6.50;99.90;;;;;;5068457;28;20173;-61
2023/12/14 12:22:58;;;;;;;9.33;1.90;;;6.70;99.90;;;;;;5069258;28;21143;-61
2023/12/14 12:25:23;;;;;;;2.97;1.60;;;6.50;99.90;;;;;;5061023;28;20177;-61
2023/12/14 12:27:49;;;;;;;4.03;1.63;;;6.50;99.90;;;;;;5062180;28;20185;-61
2023/12/14 12:30:15;;;;;;;3.47;1.80;;;6.70;99.90;;;;;;5063327;28;20708;-61
2023/12/14 12:32:41;;;;;;;2.83;1.63;;;6.90;99.90;;;;;;5068282;28;20188;-61
2023/12/14 12:35:07;;;;;;;1.90;1.33;;;6.50;99.90;;;;;;5066211;28;20185;-61
2023/12/14 12:37:33;;;;;;;5.73;2.67;;;6.50;99.90;;;;;;5053957;28;20458;-61
2023/12/14 12:39:58;;;;;;;5.20;2.57;;;6.70;99.90;;;;;;5072561;28;20451;-61
2023/12/14 12:42:25;;;;;;;18.50;2.63;;;6.90;99.90;;;;;;5069781;28;20262;-61
2023/12/14 12:44:51;;;;;;;4.23;2.00;;;6.60;99.90;;;;;;5069571;28;20637;-60
2023/12/14 12:47:16;;;;;;;3.90;2.30;;;6.90;99.90;;;;;;5069493;28;20507;-59
2023/12/14 12:49:42;;;;;;;3.73;1.83;;;7.10;99.90;;;;;;5069415;28;20173;-59
2023/12/14 12:52:07;;;;;;;5.23;2.00;;;6.80;99.90;;;;;;5069767;28;20276;-66